Aérodrome :
LOGIN :

S'inscrire | Disclaimer

   EN    FR    IT 

 










Légende :    VFR   VFR Marginal   IFR   IFR Intensif   IFR Très Intensif
Visi : 
Plafond : 
>= 8 km
>= 3000ft
5 à 8 km
1000 à 3000 ft
1500m à 5 km
500 à 1000 ft
800 à 1500m
200 à 500 ft
< 800m
< 200 ft
Symboles :   Orages  Brouillard  Fortes neiges  Fortes précipitations  Vent > 20 kt
SIGMETs :   Divers  Orages  Givrage  Turbulence  Onde Orograph.  Cendres Volcan.






- Altitude de l'aérodrome : 423 ft
- Code IATA : PIS


LFBI - Poitiers

DERNIER METAR :
  • 210200Z AUTO 28003KT 9999 FEW014 SCT029 BKN039 10/10 Q1014 TEMPO 3000 BR OVC003

METARs EXPIRÉS :
  • 210130Z AUTO 26005KT 9999 BKN010 OVC016 10/10 Q1013 TEMPO 3000 BR OVC003
  • 210100Z AUTO 25005KT 9999 SCT010 BKN021 OVC027 10/10 Q1013 TEMPO 3000 RA BKN004 BKN010
  • 210030Z AUTO 24007KT 9999 BKN009 OVC015 10/10 Q1013 TEMPO 3000 RA BKN004 BKN010
  • 210000Z AUTO 24006KT 9999 OVC009 10/10 Q1012 TEMPO 3000 RA BKN004 BKN010
  • 202330Z AUTO 24004KT 9999 BKN011 BKN056 OVC070 10/10 Q1012 TEMPO 3000 RA BKN004 BKN010

TAF TAF LFBI
Valide du 21 à 00h jusqu'au 22 à 00h UTC


202300Z 2100/2124 26005KT 9999 BKN015
TEMPO 2100/2103 3000 RA BKN004 BKN010
TEMPO 2103/2109 3000 BR OVC003
TEMPO 2109/2111 BKN010
BECMG 2113/2115 CAVOK



MET'MAP, la Météo Aéronautique d'un coup d'oeil ! - Copyright ORBIFLY Décembre 2007 - Disclaimer

ORBIFLY MET'MAP TEAM :

Programmation & Développement : Alexandra Zaïnal
Conception & Développement : Baudouin d'Aumeries
Co-Programmation & Développement : Marc-Olivier Méhu
Soutien technique & logistique : Manuel Goepfert

Contact : metmap@orbifly.com




SOURCES & CREDITS :

   NOAA